CheckWX is a tool to help pilots better visualize weather data.  It is not intended as a substitute for an official pre-flight weather briefing.

16:16:22 UTC

CYSJ METAR
Saint John Airport
Saint John, Canada
Current

1 hour ago

CYSJ 181500Z 27008KT 15SM OVC010 08/06 A2940 RMK SC8 SLP960
Observed
Oct-18 @ 15:00 UTC
Wind
  • 270° at 8 KTS
Visibility
15 SM
Flight Rules
MVFR
Cloud Levels
  • Overcast at 1,000' AGL
Temperature
C / 46°F
Dewpoint
C / 43°F
Humidity
87%
Altimeter
29.4" Hg
Pressure
995.62 hPa
Previous

2 hours ago

CYSJ 181433Z 28007KT 240V320 15SM OVC010 08/06 A2939 RMK SC8 SLP956
Observed
Oct-18 @ 14:33 UTC
Wind
  • 280° at 7 KTS
Visibility
15 SM
Flight Rules
MVFR
Cloud Levels
  • Overcast at 1,000' AGL
Temperature
C / 46°F
Dewpoint
C / 43°F
Humidity
87%
Altimeter
29.39" Hg
Pressure
995.22 hPa
Previous

2 hours ago

CYSJ 181414Z 29010G15KT 15SM OVC008 08/06 A2938 RMK SF8 SLP953
Observed
Oct-18 @ 14:14 UTC
Wind
  • 290° at 10 KTS
  • Gusting to 15 KTS
Visibility
15 SM
Flight Rules
IFR
Cloud Levels
  • Overcast at 800' AGL
Temperature
C / 46°F
Dewpoint
C / 43°F
Humidity
87%
Altimeter
29.38" Hg
Pressure
994.92 hPa